createdAt,value
2023-02-23T00:01:57.583Z,20.70
2023-02-23T00:04:26.420Z,20.10
2023-02-23T00:06:56.165Z,19.60
2023-02-23T00:09:24.708Z,21.07
2023-02-23T00:11:55.280Z,21.07
2023-02-23T00:14:27.423Z,19.40
2023-02-23T00:16:56.112Z,20.50
2023-02-23T00:19:25.666Z,21.40
2023-02-23T00:21:54.688Z,21.20
2023-02-23T00:24:27.021Z,20.93
2023-02-23T00:26:55.493Z,21.77
2023-02-23T00:29:25.789Z,20.10
2023-02-23T00:31:56.382Z,21.10
2023-02-23T00:34:24.898Z,21.73
2023-02-23T00:36:55.471Z,20.47
2023-02-23T00:39:29.186Z,20.47
2023-02-23T00:42:02.686Z,21.27
2023-02-23T00:44:32.383Z,21.90
2023-02-23T00:47:01.054Z,23.07
2023-02-23T00:49:29.492Z,21.43
2023-02-23T00:51:58.241Z,20.93
2023-02-23T00:54:27.919Z,22.80
2023-02-23T00:56:56.218Z,21.90
2023-02-23T00:59:24.596Z,22.00
2023-02-23T01:01:54.278Z,23.40
2023-02-23T01:04:24.146Z,21.70
2023-02-23T01:06:52.603Z,23.17
2023-02-23T01:09:28.189Z,21.60
2023-02-23T01:12:01.628Z,21.17
2023-02-23T01:14:31.275Z,23.70
2023-02-23T01:16:59.976Z,23.53
2023-02-23T01:19:28.584Z,24.07
2023-02-23T01:21:56.916Z,22.80
2023-02-23T01:24:25.192Z,23.27
2023-02-23T01:26:53.875Z,23.40
2023-02-23T01:29:23.893Z,23.93
2023-02-23T01:31:52.292Z,23.83
2023-02-23T01:34:22.554Z,24.20
2023-02-23T01:36:52.346Z,22.63
2023-02-23T01:39:22.174Z,23.97
2023-02-23T01:41:52.549Z,23.10
2023-02-23T01:45:01.050Z,24.27
2023-02-23T01:47:30.752Z,24.17
2023-02-23T01:49:59.048Z,23.47
2023-02-23T01:52:27.592Z,22.80
2023-02-23T01:54:57.653Z,24.33
2023-02-23T01:57:27.219Z,23.27
2023-02-23T01:59:56.028Z,23.67
2023-02-23T02:02:33.724Z,23.60
2023-02-23T02:05:06.421Z,23.40
2023-02-23T02:07:36.327Z,24.40
2023-02-23T02:10:23.011Z,24.57
2023-02-23T02:12:55.739Z,23.63
2023-02-23T02:15:29.611Z,24.57
2023-02-23T02:18:09.743Z,24.07
2023-02-23T02:21:11.447Z,25.23
2023-02-23T02:24:15.256Z,23.37
2023-02-23T02:26:58.532Z,23.20
2023-02-23T02:30:24.672Z,24.60
2023-02-23T02:33:35.153Z,25.70
2023-02-23T02:36:32.418Z,25.50
2023-02-23T02:39:17.512Z,27.50
2023-02-23T02:41:53.678Z,26.90
2023-02-23T02:44:28.652Z,26.80
2023-02-23T02:47:00.257Z,29.23
2023-02-23T02:49:33.134Z,28.23
2023-02-23T02:52:06.303Z,28.30
2023-02-23T02:54:42.315Z,26.40
2023-02-23T02:57:12.402Z,26.93
2023-02-23T03:00:03.092Z,26.67
2023-02-23T03:02:51.396Z,26.57
2023-02-23T03:05:40.500Z,27.60
2023-02-23T03:08:35.809Z,29.77
2023-02-23T03:11:24.934Z,27.00
2023-02-23T03:14:27.044Z,25.60
2023-02-23T03:17:23.243Z,25.40
2023-02-23T03:20:16.276Z,25.83
2023-02-23T03:23:12.350Z,25.23
2023-02-23T03:26:10.298Z,26.47
2023-02-23T03:29:06.031Z,25.83
2023-02-23T03:31:58.702Z,26.60
2023-02-23T03:34:50.780Z,24.60
2023-02-23T03:37:41.837Z,27.17
2023-02-23T03:40:33.351Z,28.00
2023-02-23T03:43:22.533Z,27.80
2023-02-23T03:46:11.412Z,26.43
2023-02-23T03:48:59.667Z,27.60
2023-02-23T03:51:45.973Z,27.17
2023-02-23T03:54:36.488Z,25.53
2023-02-23T03:57:27.039Z,26.43
2023-02-23T04:00:16.193Z,25.77
2023-02-23T04:03:06.295Z,25.93
2023-02-23T04:05:57.069Z,25.60
2023-02-23T04:08:48.217Z,25.70
2023-02-23T04:11:40.151Z,25.20
2023-02-23T04:14:15.941Z,26.17
2023-02-23T04:16:44.038Z,26.67
2023-02-23T04:19:14.042Z,25.17
2023-02-23T04:21:42.406Z,26.60
2023-02-23T04:24:11.449Z,24.97
2023-02-23T04:26:39.726Z,26.57
2023-02-23T04:29:07.997Z,27.30
2023-02-23T04:31:36.383Z,27.70
2023-02-23T04:34:04.806Z,25.90
2023-02-23T04:36:34.695Z,27.40
2023-02-23T04:39:02.989Z,27.00
2023-02-23T04:41:31.335Z,27.67
2023-02-23T04:43:59.706Z,26.27
2023-02-23T04:46:27.984Z,29.20
2023-02-23T04:48:56.230Z,27.50
2023-02-23T04:51:24.491Z,26.43
2023-02-23T04:53:54.278Z,29.33
2023-02-23T04:56:22.528Z,30.00
2023-02-23T04:58:51.153Z,26.90
2023-02-23T05:01:21.043Z,29.93
2023-02-23T05:03:49.557Z,29.77
2023-02-23T05:06:18.112Z,29.70
2023-02-23T05:08:46.554Z,28.50
2023-02-23T05:11:16.242Z,30.57
2023-02-23T05:13:44.730Z,29.47
2023-02-23T05:16:13.057Z,26.53
2023-02-23T05:18:41.370Z,29.20
2023-02-23T05:21:11.634Z,27.87
2023-02-23T05:23:40.703Z,29.43
2023-02-23T05:26:13.116Z,27.60
2023-02-23T05:28:43.588Z,28.00
2023-02-23T05:31:12.708Z,29.97
2023-02-23T05:33:42.655Z,30.63
2023-02-23T05:36:12.809Z,28.77
2023-02-23T05:38:41.921Z,29.80
2023-02-23T05:41:12.826Z,29.00
2023-02-23T05:43:42.542Z,29.40
2023-02-23T05:46:12.215Z,30.40
2023-02-23T05:48:40.512Z,50.50
2023-02-23T05:51:10.946Z,48.80
2023-02-23T05:53:39.360Z,46.93
2023-02-23T05:56:09.325Z,37.20
2023-02-23T05:58:37.629Z,34.20
2023-02-23T06:01:07.534Z,31.07
2023-02-23T06:03:35.833Z,32.77
2023-02-23T06:06:04.186Z,32.43
2023-02-23T06:08:33.397Z,31.77
2023-02-23T06:11:01.766Z,29.70
2023-02-23T06:13:30.452Z,29.90
2023-02-23T06:15:59.343Z,29.80
2023-02-23T06:18:29.886Z,27.83
2023-02-23T06:21:01.439Z,29.43
2023-02-23T06:23:30.347Z,30.30
2023-02-23T06:25:59.600Z,42.50
2023-02-23T06:28:29.392Z,48.53
2023-02-23T06:30:58.161Z,41.13
2023-02-23T06:33:28.165Z,32.50
2023-02-23T06:35:56.555Z,32.50
2023-02-23T06:38:25.006Z,27.17
2023-02-23T06:40:53.324Z,30.83
2023-02-23T06:43:23.152Z,29.23
2023-02-23T06:45:51.964Z,28.50
2023-02-23T06:48:20.282Z,29.70
2023-02-23T06:50:50.058Z,32.33
2023-02-23T06:53:18.396Z,28.60
2023-02-23T06:55:47.021Z,30.30
2023-02-23T06:58:15.360Z,32.30
2023-02-23T07:00:44.050Z,31.00
2023-02-23T07:03:12.259Z,27.57
2023-02-23T07:05:40.991Z,32.53
2023-02-23T07:08:10.652Z,32.10
2023-02-23T07:10:38.947Z,33.53
2023-02-23T07:13:07.228Z,29.70
2023-02-23T07:15:36.996Z,36.00
2023-02-23T07:18:05.385Z,35.37
2023-02-23T07:20:34.055Z,56.40
2023-02-23T07:23:03.036Z,45.87
2023-02-23T07:25:32.971Z,39.73
2023-02-23T07:28:01.282Z,35.97
2023-02-23T07:30:29.758Z,36.27
2023-02-23T07:32:58.164Z,33.57
2023-02-23T07:35:26.466Z,33.83
2023-02-23T07:37:55.930Z,24.77
2023-02-23T07:40:24.316Z,34.47
2023-02-23T07:42:55.491Z,38.33
2023-02-23T07:45:25.169Z,34.07
2023-02-23T07:47:53.544Z,34.63
2023-02-23T07:50:22.216Z,36.20
2023-02-23T07:52:51.596Z,34.93
2023-02-23T07:55:21.012Z,35.57
2023-02-23T07:57:49.506Z,39.50
2023-02-23T08:00:20.081Z,33.80
2023-02-23T08:02:48.376Z,37.40
2023-02-23T08:05:16.961Z,59.33
2023-02-23T08:07:45.498Z,46.27
2023-02-23T08:10:14.268Z,37.00
2023-02-23T08:12:42.688Z,33.63
2023-02-23T08:15:12.412Z,33.17
2023-02-23T08:17:42.326Z,33.37
2023-02-23T08:20:11.933Z,34.10
2023-02-23T08:22:49.266Z,34.10
2023-02-23T08:25:18.914Z,37.20
2023-02-23T08:27:47.621Z,36.87
2023-02-23T08:30:19.074Z,34.60
2023-02-23T08:32:49.507Z,34.70
2023-02-23T08:35:20.193Z,36.50
2023-02-23T08:37:48.609Z,34.77
2023-02-23T08:40:18.414Z,31.83
2023-02-23T08:42:46.802Z,33.77
2023-02-23T08:45:15.120Z,48.67
2023-02-23T08:47:43.538Z,45.33
2023-02-23T08:50:14.850Z,37.87
2023-02-23T08:52:43.603Z,37.70
2023-02-23T08:55:13.996Z,36.40
2023-02-23T08:57:42.978Z,34.80
2023-02-23T09:00:16.709Z,34.57
2023-02-23T09:02:48.150Z,36.67
2023-02-23T09:05:18.683Z,35.43
2023-02-23T09:07:47.661Z,37.90
2023-02-23T09:10:19.774Z,35.67
2023-02-23T09:12:48.206Z,36.57
2023-02-23T09:15:16.506Z,39.97
2023-02-23T09:17:45.059Z,36.50
2023-02-23T09:20:16.024Z,34.50
2023-02-23T09:22:48.762Z,36.30
2023-02-23T09:25:19.148Z,36.63
2023-02-23T09:27:47.606Z,36.43
2023-02-23T09:30:17.962Z,37.30
2023-02-23T09:32:46.546Z,37.00
2023-02-23T09:35:17.869Z,37.63
2023-02-23T09:37:49.154Z,35.00
2023-02-23T09:40:20.420Z,33.60
2023-02-23T09:43:00.329Z,33.93
2023-02-23T09:45:39.856Z,34.87
2023-02-23T09:48:14.005Z,35.17
2023-02-23T09:50:46.480Z,34.83
2023-02-23T09:53:26.871Z,38.33
2023-02-23T09:55:57.431Z,38.20
2023-02-23T09:58:27.209Z,34.10
2023-02-23T10:01:23.742Z,33.43
2023-02-23T10:03:57.011Z,34.27
2023-02-23T10:06:25.475Z,29.20
2023-02-23T10:09:06.780Z,30.23
2023-02-23T10:11:43.790Z,25.23
2023-02-23T10:14:27.936Z,27.87
2023-02-23T10:17:10.829Z,29.70
2023-02-23T10:19:45.660Z,32.00
2023-02-23T10:22:16.872Z,32.50
2023-02-23T10:24:52.169Z,29.00
2023-02-23T10:27:23.272Z,30.37
2023-02-23T10:29:57.302Z,32.00
2023-02-23T10:32:40.529Z,30.60
2023-02-23T10:35:13.372Z,31.17
2023-02-23T10:37:41.953Z,32.43
2023-02-23T10:40:18.259Z,31.90
2023-02-23T10:42:46.803Z,40.57
2023-02-23T10:45:23.333Z,51.60
2023-02-23T10:47:55.397Z,33.77
2023-02-23T10:50:27.565Z,31.03
2023-02-23T10:53:00.578Z,30.80
2023-02-23T10:55:31.879Z,30.63
2023-02-23T10:58:06.799Z,30.63
2023-02-23T11:00:37.028Z,33.57
2023-02-23T11:03:19.968Z,32.20
2023-02-23T11:05:53.159Z,33.10
2023-02-23T11:08:31.839Z,33.00
2023-02-23T11:11:08.337Z,33.47
2023-02-23T11:13:42.430Z,31.97
2023-02-23T11:16:14.218Z,32.77
2023-02-23T11:18:45.610Z,29.30
2023-02-23T11:21:19.098Z,28.23
2023-02-23T11:23:50.576Z,25.67
2023-02-23T11:26:30.865Z,26.73
2023-02-23T11:29:04.072Z,26.40
2023-02-23T11:31:36.031Z,24.17
2023-02-23T11:34:06.768Z,25.07
2023-02-23T11:36:36.764Z,25.57
2023-02-23T11:39:21.997Z,25.57
2023-02-23T11:42:14.992Z,24.83
2023-02-23T11:44:43.363Z,24.87
2023-02-23T11:47:20.821Z,25.40
2023-02-23T11:49:50.525Z,23.27
2023-02-23T11:52:22.240Z,24.87
2023-02-23T11:54:57.830Z,23.57
2023-02-23T11:57:30.819Z,30.67
2023-02-23T12:00:00.471Z,28.50
2023-02-23T12:02:30.881Z,22.63
2023-02-23T12:05:09.198Z,21.90
2023-02-23T12:07:41.770Z,19.00
2023-02-23T12:10:17.632Z,20.00
2023-02-23T12:12:56.986Z,17.57
2023-02-23T12:15:37.196Z,19.00
2023-02-23T12:18:13.712Z,18.57
2023-02-23T12:20:47.187Z,19.87
2023-02-23T12:23:21.398Z,20.23
2023-02-23T12:25:54.677Z,20.97
2023-02-23T12:28:32.220Z,18.77
2023-02-23T12:31:05.861Z,20.80
2023-02-23T12:33:39.328Z,21.00
2023-02-23T12:36:18.575Z,20.73
2023-02-23T12:38:53.647Z,21.03
2023-02-23T12:41:30.543Z,20.93
2023-02-23T12:44:04.433Z,21.80
2023-02-23T12:46:37.783Z,22.30
2023-02-23T12:49:17.025Z,21.10
2023-02-23T12:51:51.624Z,21.67
2023-02-23T12:54:20.594Z,21.90
2023-02-23T12:56:58.867Z,21.10
2023-02-23T13:00:10.019Z,21.17
2023-02-23T13:02:47.111Z,23.00
2023-02-23T13:05:22.687Z,22.83
2023-02-23T13:08:12.845Z,22.50
2023-02-23T13:10:50.202Z,22.80
2023-02-23T13:13:30.118Z,22.07
2023-02-23T13:16:10.332Z,22.33
2023-02-23T13:18:42.924Z,23.90
2023-02-23T13:21:18.161Z,42.37
2023-02-23T13:23:56.107Z,31.33
2023-02-23T13:26:31.505Z,28.20
2023-02-23T13:29:03.927Z,22.40
2023-02-23T13:31:36.905Z,23.90
2023-02-23T13:34:07.647Z,21.77
2023-02-23T13:36:36.936Z,23.13
2023-02-23T13:39:32.325Z,22.57
2023-02-23T13:42:20.138Z,21.23
2023-02-23T13:44:53.047Z,21.10
2023-02-23T13:47:37.373Z,22.33
2023-02-23T13:50:17.201Z,21.97
2023-02-23T13:52:47.528Z,21.93
2023-02-23T13:55:54.986Z,21.20
2023-02-23T13:58:32.746Z,21.13
2023-02-23T14:01:11.975Z,21.70
2023-02-23T14:03:54.038Z,24.13
2023-02-23T14:06:25.814Z,23.13
2023-02-23T14:09:00.765Z,24.20
2023-02-23T14:11:35.728Z,20.07
2023-02-23T14:14:05.556Z,21.13
2023-02-23T14:16:34.057Z,23.43
2023-02-23T14:19:36.685Z,20.77
2023-02-23T14:22:09.975Z,22.27
2023-02-23T14:24:38.379Z,20.97
2023-02-23T14:27:39.939Z,20.77
2023-02-23T14:30:25.450Z,20.27
2023-02-23T14:32:54.798Z,20.20
2023-02-23T14:35:49.052Z,23.10
2023-02-23T14:38:46.936Z,20.10
2023-02-23T14:41:15.604Z,18.83
2023-02-23T14:43:46.402Z,19.43
2023-02-23T14:46:21.214Z,19.40
2023-02-23T14:49:01.552Z,19.70
2023-02-23T14:51:39.731Z,25.10
2023-02-23T14:54:15.755Z,26.47
2023-02-23T14:56:48.290Z,23.90
2023-02-23T14:59:22.050Z,19.97
2023-02-23T15:01:51.212Z,18.90
2023-02-23T15:04:22.566Z,18.80
2023-02-23T15:06:56.186Z,15.53
2023-02-23T15:09:35.683Z,14.97
2023-02-23T15:12:13.968Z,16.97
2023-02-23T15:14:43.285Z,18.23
2023-02-23T15:17:19.029Z,18.47
2023-02-23T15:19:49.643Z,17.93
2023-02-23T15:22:26.044Z,17.60
2023-02-23T15:24:58.524Z,17.63
2023-02-23T15:27:32.394Z,16.97
2023-02-23T15:30:04.542Z,18.70
2023-02-23T15:32:33.138Z,18.83
2023-02-23T15:35:04.357Z,18.30
2023-02-23T15:37:40.043Z,17.40
2023-02-23T15:40:16.081Z,17.70
2023-02-23T15:42:49.559Z,17.77
2023-02-23T15:45:24.609Z,19.27
2023-02-23T15:47:54.947Z,30.57
2023-02-23T15:50:36.528Z,25.37
2023-02-23T15:53:13.568Z,21.17
2023-02-23T15:55:44.554Z,18.77
2023-02-23T15:58:18.903Z,17.37
2023-02-23T16:00:55.470Z,16.33
2023-02-23T16:03:26.622Z,16.23
2023-02-23T16:06:02.602Z,15.93
2023-02-23T16:08:32.748Z,15.53
2023-02-23T16:11:11.939Z,17.27
2023-02-23T16:13:44.995Z,16.33
2023-02-23T16:16:19.484Z,16.03
2023-02-23T16:18:52.737Z,15.40
2023-02-23T16:21:24.997Z,16.03
2023-02-23T16:23:58.696Z,16.20
2023-02-23T16:26:30.341Z,16.00
2023-02-23T16:29:01.410Z,15.80
2023-02-23T16:31:43.610Z,16.70
2023-02-23T16:34:25.935Z,18.60
2023-02-23T16:36:58.434Z,29.83
2023-02-23T16:39:30.487Z,28.50
2023-02-23T16:41:59.798Z,24.50
2023-02-23T16:44:42.942Z,20.30
2023-02-23T16:47:28.319Z,21.10
2023-02-23T16:49:56.900Z,20.73
2023-02-23T16:52:26.104Z,20.13
2023-02-23T16:54:56.237Z,18.67
2023-02-23T16:57:28.157Z,17.50
2023-02-23T16:59:57.636Z,17.00
2023-02-23T17:02:25.999Z,18.80
2023-02-23T17:04:58.889Z,17.90
2023-02-23T17:07:27.205Z,19.50
2023-02-23T17:09:57.019Z,17.70
2023-02-23T17:12:25.342Z,18.97
2023-02-23T17:14:53.719Z,33.40
2023-02-23T17:17:22.816Z,26.10
2023-02-23T17:19:51.077Z,20.67
2023-02-23T17:22:19.411Z,18.40
2023-02-23T17:24:47.703Z,17.43
2023-02-23T17:27:17.427Z,16.20
2023-02-23T17:29:45.756Z,14.97
2023-02-23T17:32:14.220Z,15.27
2023-02-23T17:34:43.134Z,14.77
2023-02-23T17:37:11.820Z,15.50
2023-02-23T17:39:41.132Z,14.50
2023-02-23T17:42:09.925Z,14.40
2023-02-23T17:44:39.628Z,14.20
2023-02-23T17:47:08.281Z,15.10
2023-02-23T17:49:36.836Z,14.93
2023-02-23T17:52:05.488Z,15.80
2023-02-23T17:54:33.829Z,15.00
2023-02-23T17:57:02.188Z,14.47
2023-02-23T17:59:30.520Z,15.17
2023-02-23T18:02:00.233Z,13.67
2023-02-23T18:04:28.692Z,12.77
2023-02-23T18:06:57.866Z,13.87
2023-02-23T18:09:26.194Z,11.47
2023-02-23T18:11:56.347Z,12.30
2023-02-23T18:14:25.815Z,12.80
2023-02-23T18:16:54.134Z,12.97
2023-02-23T18:19:23.952Z,22.03
2023-02-23T18:21:56.038Z,30.87
2023-02-23T18:24:24.492Z,25.30
2023-02-23T18:26:52.987Z,14.57
2023-02-23T18:29:21.373Z,13.23
2023-02-23T18:31:49.974Z,12.83
2023-02-23T18:34:18.491Z,12.30
2023-02-23T18:36:48.365Z,11.53
2023-02-23T18:39:16.803Z,13.10
2023-02-23T18:41:45.191Z,11.50
2023-02-23T18:44:15.707Z,10.67
2023-02-23T18:46:44.478Z,10.53
2023-02-23T18:49:15.438Z,9.70
2023-02-23T18:51:43.748Z,10.10
2023-02-23T18:54:16.787Z,10.67
2023-02-23T18:56:46.062Z,8.77
2023-02-23T18:59:15.104Z,8.50
2023-02-23T19:01:47.944Z,8.50
2023-02-23T19:04:16.694Z,10.23
2023-02-23T19:06:47.227Z,10.30
2023-02-23T19:09:21.464Z,10.70
2023-02-23T19:11:50.738Z,9.63
2023-02-23T19:14:22.142Z,43.20
2023-02-23T19:16:54.472Z,27.43
2023-02-23T19:19:23.467Z,14.53
2023-02-23T19:21:51.849Z,10.90
2023-02-23T19:24:21.661Z,9.77
2023-02-23T19:26:49.959Z,10.33
2023-02-23T19:29:18.411Z,8.00
2023-02-23T19:31:46.902Z,8.77
2023-02-23T19:34:15.485Z,8.10
2023-02-23T19:36:47.047Z,7.30
2023-02-23T19:39:15.686Z,8.10
2023-02-23T19:41:45.816Z,8.57
2023-02-23T19:44:14.149Z,8.53
2023-02-23T19:46:43.061Z,8.20
2023-02-23T19:49:12.942Z,7.90
2023-02-23T19:51:41.260Z,6.87
2023-02-23T19:54:09.892Z,8.10
2023-02-23T19:56:38.634Z,8.87
2023-02-23T19:59:08.352Z,8.97
2023-02-23T20:01:37.362Z,9.40
2023-02-23T20:04:08.279Z,8.30
2023-02-23T20:06:41.392Z,8.30
2023-02-23T20:09:10.104Z,9.80
2023-02-23T20:11:38.514Z,9.70
2023-02-23T20:14:08.662Z,9.83
2023-02-23T20:16:37.391Z,10.13
2023-02-23T20:19:06.643Z,9.43
2023-02-23T20:21:36.735Z,8.80
2023-02-23T20:24:06.245Z,9.10
2023-02-23T20:26:37.241Z,8.00
2023-02-23T20:29:11.156Z,8.47
2023-02-23T20:31:44.903Z,9.30
2023-02-23T20:34:13.555Z,9.17
2023-02-23T20:36:41.866Z,8.73
2023-02-23T20:39:11.192Z,8.90
2023-02-23T20:41:43.426Z,9.50
2023-02-23T20:44:14.664Z,9.23
2023-02-23T20:46:44.406Z,9.47
2023-02-23T20:49:13.733Z,14.80
2023-02-23T20:51:44.092Z,12.77
2023-02-23T20:54:14.662Z,10.30
2023-02-23T20:56:43.681Z,10.03
2023-02-23T20:59:15.644Z,10.53
2023-02-23T21:01:45.357Z,10.90
2023-02-23T21:04:14.089Z,9.67
2023-02-23T21:06:42.633Z,9.73
2023-02-23T21:09:17.956Z,9.30
2023-02-23T21:11:48.022Z,7.93
2023-02-23T21:14:18.837Z,6.63
2023-02-23T21:16:47.215Z,5.40
2023-02-23T21:19:20.421Z,4.80
2023-02-23T21:21:51.117Z,4.20
2023-02-23T21:24:21.000Z,4.30
2023-02-23T21:26:49.386Z,4.23
2023-02-23T21:29:23.944Z,5.20
2023-02-23T21:31:52.576Z,4.07
2023-02-23T21:34:21.091Z,3.90
2023-02-23T21:36:49.957Z,5.57
2023-02-23T21:39:18.293Z,5.90
2023-02-23T21:41:46.681Z,5.77
2023-02-23T21:44:14.971Z,4.70
2023-02-23T21:46:44.694Z,5.10
2023-02-23T21:49:13.068Z,5.67
2023-02-23T21:51:41.525Z,4.70
2023-02-23T21:54:09.980Z,4.87
2023-02-23T21:56:38.956Z,5.07
2023-02-23T21:59:10.745Z,5.80
2023-02-23T22:01:40.777Z,5.40
2023-02-23T22:04:14.630Z,4.83
2023-02-23T22:06:44.881Z,5.50
2023-02-23T22:09:15.779Z,5.53
2023-02-23T22:11:46.715Z,5.07
2023-02-23T22:14:16.743Z,4.40
2023-02-23T22:16:46.155Z,4.53
2023-02-23T22:19:15.939Z,4.40
2023-02-23T22:21:44.993Z,5.07
2023-02-23T22:24:14.991Z,5.03
2023-02-23T22:26:54.109Z,5.37
2023-02-23T22:29:24.114Z,5.60
2023-02-23T22:31:52.647Z,5.90
2023-02-23T22:34:22.855Z,5.20
2023-02-23T22:36:51.560Z,5.00
2023-02-23T22:39:19.990Z,4.23
2023-02-23T22:41:49.028Z,4.20
2023-02-23T22:44:20.349Z,5.00
2023-02-23T22:46:48.989Z,4.60
2023-02-23T22:49:19.960Z,4.30
2023-02-23T22:51:50.482Z,5.10
2023-02-23T22:54:20.482Z,5.17
2023-02-23T22:56:49.023Z,5.00
2023-02-23T22:59:20.486Z,4.23
2023-02-23T23:01:50.319Z,5.17
2023-02-23T23:04:21.937Z,4.47
2023-02-23T23:06:52.856Z,4.70
2023-02-23T23:09:21.857Z,5.33
2023-02-23T23:11:51.140Z,4.57
2023-02-23T23:14:20.375Z,4.40
2023-02-23T23:16:49.637Z,3.90
2023-02-23T23:19:23.840Z,3.70
2023-02-23T23:21:56.075Z,3.53
2023-02-23T23:24:25.644Z,5.00
2023-02-23T23:26:56.232Z,5.40
2023-02-23T23:29:29.552Z,4.57
2023-02-23T23:31:58.163Z,4.33
2023-02-23T23:34:26.502Z,4.63
2023-02-23T23:36:56.746Z,5.53
2023-02-23T23:39:26.153Z,5.13
2023-02-23T23:41:55.132Z,5.33
2023-02-23T23:44:29.086Z,4.27
2023-02-23T23:46:58.036Z,4.53
2023-02-23T23:49:26.542Z,5.90
2023-02-23T23:51:57.365Z,4.43
2023-02-23T23:54:27.579Z,4.30
2023-02-23T23:56:56.349Z,5.10
2023-02-23T23:59:26.606Z,5.23
